Time;durP1;ratioP1;P1;durP2;ratioP2;P2;SDS_P1;SDS_P2;PMS_P1;PMS_P2;Temp;Humidity;BMP_temperature;BMP_pressure;BME280_temperature;BME280_humidity;BME280_pressure;Samples;Min_cycle;Max_cycle;Signal;HPM_P1;HPM_P2
2021/05/22 00:01:56;;;;;;;1.87;0.60;;;10.00;99.90;;;;;;5000369;28;20267;-79
2021/05/22 00:04:22;;;;;;;3.67;0.97;;;9.90;99.90;;;;;;4998250;28;20188;-80
2021/05/22 00:06:47;;;;;;;0.93;0.80;;;10.00;99.90;;;;;;5000492;28;20242;-80
2021/05/22 00:09:13;;;;;;;2.47;1.20;;;9.90;99.90;;;;;;4997647;28;20270;-80
2021/05/22 00:11:38;;;;;;;1.00;0.90;;;9.90;99.90;;;;;;4997553;28;20227;-78
2021/05/22 00:14:06;;;;;;;1.97;0.80;;;9.90;99.90;;;;;;4999028;28;20267;-79
2021/05/22 00:16:33;;;;;;;0.30;0.30;;;10.10;99.90;;;;;;4995803;28;20595;-81
2021/05/22 00:18:59;;;;;;;0.87;0.57;;;10.20;99.90;;;;;;5000165;28;20225;-76
2021/05/22 00:21:25;;;;;;;0.80;0.37;;;10.10;99.90;;;;;;4998843;28;20192;-78
2021/05/22 00:23:50;;;;;;;0.70;0.70;;;10.10;99.90;;;;;;4998450;28;20282;-77
2021/05/22 00:26:16;;;;;;;1.43;0.60;;;9.90;99.90;;;;;;4997804;28;20274;-78
2021/05/22 00:28:41;;;;;;;0.90;0.60;;;9.80;99.90;;;;;;4997768;28;20211;-80
2021/05/22 00:31:07;;;;;;;1.73;0.70;;;9.80;99.90;;;;;;4996332;28;20646;-80
2021/05/22 00:33:33;;;;;;;0.60;0.50;;;9.80;99.90;;;;;;4996331;28;20242;-79
2021/05/22 00:35:59;;;;;;;0.40;0.30;;;9.70;99.90;;;;;;4996331;28;20188;-78
2021/05/22 00:38:24;;;;;;;1.17;0.47;;;9.70;99.90;;;;;;4997428;28;20236;-82
2021/05/22 00:40:50;;;;;;;2.33;0.63;;;9.80;99.90;;;;;;4999131;28;20192;-80
2021/05/22 00:43:15;;;;;;;0.80;0.80;;;9.90;99.90;;;;;;5000217;28;20195;-80
2021/05/22 00:45:43;;;;;;;1.33;0.93;;;9.80;99.90;;;;;;4999201;28;20198;-82
2021/05/22 00:48:09;;;;;;;1.13;0.60;;;9.90;99.90;;;;;;4998418;28;20212;-78
2021/05/22 00:50:37;;;;;;;0.40;0.40;;;9.90;99.90;;;;;;4998631;28;20708;-80
2021/05/22 00:53:05;;;;;;;0.47;0.30;;;10.00;99.90;;;;;;4999228;28;20180;-81
2021/05/22 00:55:31;;;;;;;3.23;0.93;;;10.10;99.90;;;;;;4997577;28;20204;-80
2021/05/22 00:57:57;;;;;;;0.83;0.60;;;10.20;99.90;;;;;;4999234;28;20286;-81
2021/05/22 01:00:37;;;;;;;0.57;0.50;;;10.20;99.90;;;;;;5000113;28;20234;-79
2021/05/22 01:03:02;;;;;;;0.57;0.40;;;10.20;99.90;;;;;;5001003;28;20219;-79
2021/05/22 01:05:28;;;;;;;0.90;0.50;;;10.20;99.90;;;;;;4995567;28;20754;-80
2021/05/22 01:07:55;;;;;;;0.40;0.40;;;10.20;99.90;;;;;;4999477;28;20596;-80
2021/05/22 01:10:21;;;;;;;1.13;0.70;;;10.30;99.90;;;;;;4998777;28;20199;-79
2021/05/22 01:12:49;;;;;;;0.80;0.50;;;10.30;99.90;;;;;;4999878;28;20196;-79
2021/05/22 01:15:17;;;;;;;0.90;0.67;;;10.40;99.90;;;;;;4996819;28;20196;-79
2021/05/22 01:17:47;;;;;;;1.97;0.57;;;10.40;99.90;;;;;;4998888;28;20887;-79
2021/05/22 01:20:28;;;;;;;1.13;0.60;;;10.50;99.90;;;;;;4998905;28;20279;-77
2021/05/22 01:23:01;;;;;;;1.37;0.80;;;10.70;99.90;;;;;;5012854;28;20184;-80
2021/05/22 01:25:40;;;;;;;1.70;0.73;;;10.80;99.90;;;;;;4999121;28;20191;-78
2021/05/22 01:28:09;;;;;;;2.50;0.90;;;11.00;99.90;;;;;;4998443;28;20262;-78
2021/05/22 01:30:35;;;;;;;0.67;0.47;;;11.10;99.90;;;;;;5005071;28;20192;-78
2021/05/22 01:33:03;;;;;;;0.63;0.63;;;11.20;99.90;;;;;;4997749;28;20180;-80
2021/05/22 01:35:29;;;;;;;1.47;0.50;;;11.30;99.90;;;;;;4999678;28;20214;-81
2021/05/22 01:37:54;;;;;;;2.50;0.50;;;11.40;99.90;;;;;;4997512;28;20212;-81
2021/05/22 01:40:20;;;;;;;1.60;0.63;;;11.50;99.90;;;;;;4997072;28;20245;-76
2021/05/22 01:42:46;;;;;;;1.37;0.50;;;11.50;99.90;;;;;;4998413;28;20219;-81
2021/05/22 01:45:28;;;;;;;0.90;0.67;;;11.50;99.90;;;;;;4999687;28;20183;-77
2021/05/22 01:47:56;;;;;;;0.53;0.40;;;11.60;99.90;;;;;;4997844;28;20203;-79
2021/05/22 01:50:24;;;;;;;0.30;0.30;;;11.50;99.90;;;;;;4998245;28;20195;-82
2021/05/22 01:52:53;;;;;;;0.87;0.40;;;11.50;99.90;;;;;;4996831;28;20544;-78
2021/05/22 01:55:20;;;;;;;1.47;0.63;;;11.40;99.90;;;;;;4999121;28;20188;-80
2021/05/22 01:57:46;;;;;;;1.17;0.43;;;11.30;99.90;;;;;;4995974;28;20685;-82
2021/05/22 02:00:13;;;;;;;0.50;0.30;;;11.10;99.90;;;;;;4996130;28;20192;-79
2021/05/22 02:03:00;;;;;;;0.47;0.43;;;11.00;99.90;;;;;;4996332;28;20564;-80
2021/05/22 02:05:28;;;;;;;0.20;0.20;;;11.00;99.90;;;;;;5004160;28;21027;-82
2021/05/22 02:07:56;;;;;;;0.50;0.30;;;10.90;99.90;;;;;;4997126;28;20263;-79
2021/05/22 02:10:23;;;;;;;0.60;0.53;;;10.90;99.90;;;;;;4995141;28;20214;-77
2021/05/22 02:12:50;;;;;;;0.50;0.40;;;10.80;99.90;;;;;;5013972;28;20215;-81
2021/05/22 02:15:16;;;;;;;1.50;0.30;;;10.70;99.90;;;;;;4996211;28;20195;-81
2021/05/22 02:17:45;;;;;;;1.60;0.60;;;10.70;99.90;;;;;;4993412;28;20223;-77
2021/05/22 02:20:11;;;;;;;0.43;0.30;;;10.50;99.90;;;;;;4994619;28;20183;-78
2021/05/22 02:22:41;;;;;;;1.53;0.43;;;10.40;99.90;;;;;;4996102;28;20793;-79
2021/05/22 02:25:08;;;;;;;0.60;0.40;;;10.50;99.90;;;;;;4994605;28;20559;-81
2021/05/22 02:27:35;;;;;;;1.17;0.33;;;10.30;99.90;;;;;;4996550;28;20219;-81
2021/05/22 02:30:02;;;;;;;0.30;0.30;;;10.20;99.90;;;;;;4994821;28;20198;-78
2021/05/22 02:32:29;;;;;;;0.20;0.20;;;10.10;99.90;;;;;;4997042;28;20191;-80
2021/05/22 02:34:56;;;;;;;0.20;0.20;;;10.10;99.90;;;;;;4987453;28;20187;-81
2021/05/22 02:37:26;;;;;;;1.20;0.30;;;10.10;99.90;;;;;;4997069;28;20223;-78
2021/05/22 02:39:55;;;;;;;0.10;0.10;;;10.10;99.90;;;;;;5003663;28;20306;-75
2021/05/22 02:42:22;;;;;;;0.50;0.30;;;10.30;99.90;;;;;;4996364;28;20205;-79
2021/05/22 02:44:51;;;;;;;1.30;0.33;;;10.20;99.90;;;;;;4996075;28;20270;-80
2021/05/22 02:47:19;;;;;;;0.57;0.23;;;10.30;99.90;;;;;;4995902;28;20212;-81
2021/05/22 02:49:46;;;;;;;0.20;0.20;;;10.30;99.90;;;;;;4995612;28;20556;-79
2021/05/22 02:52:18;;;;;;;0.30;0.30;;;10.30;99.90;;;;;;5004040;28;20188;-78
2021/05/22 02:54:46;;;;;;;1.13;0.30;;;10.20;99.90;;;;;;4995335;28;20193;-78
2021/05/22 02:57:13;;;;;;;0.67;0.23;;;10.20;99.90;;;;;;4997072;28;20231;-77
2021/05/22 02:59:42;;;;;;;1.00;0.70;;;10.10;99.90;;;;;;4988407;28;20210;-78
2021/05/22 03:02:09;;;;;;;0.10;0.10;;;10.20;99.90;;;;;;4996301;28;20713;-79
2021/05/22 03:04:35;;;;;;;0.30;0.23;;;10.10;99.90;;;;;;4994484;28;20183;-81
2021/05/22 03:07:02;;;;;;;0.60;0.20;;;10.10;99.90;;;;;;4994789;28;20245;-79
2021/05/22 03:09:28;;;;;;;1.13;0.20;;;10.10;99.90;;;;;;4996529;28;20215;-80
2021/05/22 03:11:54;;;;;;;0.20;0.20;;;10.10;99.90;;;;;;4994925;28;20235;-77
2021/05/22 03:14:19;;;;;;;0.40;0.40;;;10.00;99.90;;;;;;4994246;28;20189;-78
2021/05/22 03:16:45;;;;;;;0.20;0.20;;;10.00;99.90;;;;;;4994351;28;20180;-78
2021/05/22 03:19:11;;;;;;;1.13;0.20;;;10.10;99.90;;;;;;4995385;28;20183;-78
2021/05/22 03:21:36;;;;;;;0.20;0.20;;;10.10;99.90;;;;;;4993621;28;20192;-80
2021/05/22 03:24:03;;;;;;;0.30;0.30;;;10.10;99.90;;;;;;4993928;28;20625;-79
2021/05/22 03:26:29;;;;;;;0.33;0.30;;;10.00;99.90;;;;;;4993064;28;20198;-79
2021/05/22 03:28:55;;;;;;;0.20;0.20;;;10.00;99.90;;;;;;4995661;28;20302;-78
2021/05/22 03:31:20;;;;;;;0.30;0.30;;;10.00;99.90;;;;;;4994177;28;20222;-78
2021/05/22 03:33:46;;;;;;;0.17;0.17;;;10.00;99.90;;;;;;4993130;28;20263;-79
2021/05/22 03:36:13;;;;;;;0.47;0.23;;;10.10;99.90;;;;;;4993935;28;20198;-78
2021/05/22 03:38:38;;;;;;;1.33;0.37;;;10.10;99.90;;;;;;4992019;28;20210;-79
2021/05/22 03:41:04;;;;;;;0.20;0.20;;;10.10;99.90;;;;;;4993170;28;20185;-79
2021/05/22 03:43:30;;;;;;;0.50;0.40;;;10.10;99.90;;;;;;5007457;28;20199;-79
2021/05/22 03:45:55;;;;;;;0.57;0.30;;;10.20;99.90;;;;;;4991251;28;20764;-79
2021/05/22 03:48:21;;;;;;;0.50;0.47;;;10.20;99.90;;;;;;4991886;28;20207;-80
2021/05/22 03:50:46;;;;;;;1.03;0.20;;;10.10;99.90;;;;;;5000994;28;20187;-81
2021/05/22 03:53:13;;;;;;;0.67;0.40;;;10.20;99.90;;;;;;4994689;28;20203;-79
2021/05/22 03:55:39;;;;;;;1.60;0.20;;;10.30;99.90;;;;;;4995326;28;20682;-76
2021/05/22 03:58:06;;;;;;;0.20;0.20;;;10.30;99.90;;;;;;4994181;28;20204;-81
2021/05/22 04:00:32;;;;;;;1.90;0.40;;;10.20;99.90;;;;;;4996086;28;20431;-79
2021/05/22 04:02:57;;;;;;;0.77;0.20;;;10.30;99.90;;;;;;4994355;28;20670;-79
2021/05/22 04:05:23;;;;;;;0.80;0.30;;;10.30;99.90;;;;;;4993743;28;20556;-79
2021/05/22 04:07:48;;;;;;;0.30;0.30;;;10.30;99.90;;;;;;4994523;28;20214;-81
2021/05/22 04:10:14;;;;;;;0.47;0.47;;;10.40;99.90;;;;;;4995826;28;20175;-78
2021/05/22 04:12:40;;;;;;;0.27;0.27;;;10.50;99.90;;;;;;4994105;28;20188;-80
2021/05/22 04:15:06;;;;;;;0.20;0.20;;;10.60;99.90;;;;;;4995490;28;20195;-80
2021/05/22 04:17:31;;;;;;;0.40;0.23;;;10.60;99.90;;;;;;4995732;28;20223;-78
2021/05/22 04:19:57;;;;;;;0.20;0.20;;;10.60;99.90;;;;;;4996500;28;20191;-80
2021/05/22 04:22:22;;;;;;;0.20;0.20;;;10.60;99.90;;;;;;4998342;28;20189;-80
2021/05/22 04:24:48;;;;;;;0.93;0.30;;;10.70;99.90;;;;;;4997585;28;20180;-79
2021/05/22 04:27:14;;;;;;;0.50;0.40;;;10.70;99.90;;;;;;4994059;28;20961;-76
2021/05/22 04:29:39;;;;;;;0.30;0.30;;;10.80;99.90;;;;;;4995736;28;20211;-80
2021/05/22 04:32:05;;;;;;;0.40;0.30;;;10.80;99.90;;;;;;4994951;28;20242;-80
2021/05/22 04:34:31;;;;;;;0.20;0.20;;;10.90;99.90;;;;;;4999075;28;20658;-82
2021/05/22 04:36:57;;;;;;;0.40;0.30;;;11.00;99.90;;;;;;4998569;28;20180;-80
2021/05/22 04:39:22;;;;;;;0.30;0.30;;;11.00;99.90;;;;;;4997833;28;20242;-79
2021/05/22 04:41:48;;;;;;;0.20;0.20;;;11.00;99.90;;;;;;4999628;28;20196;-79
2021/05/22 04:44:13;;;;;;;0.37;0.30;;;11.10;99.90;;;;;;4998364;28;20247;-78
2021/05/22 04:46:39;;;;;;;2.57;0.43;;;11.10;99.90;;;;;;4997425;28;20183;-77
2021/05/22 04:49:05;;;;;;;0.87;0.47;;;11.20;99.90;;;;;;5000413;28;20214;-76
2021/05/22 04:51:31;;;;;;;0.70;0.37;;;11.30;99.90;;;;;;4998399;28;20195;-78
2021/05/22 04:54:03;;;;;;;0.40;0.30;;;11.30;99.90;;;;;;4999011;28;20181;-80
2021/05/22 04:56:29;;;;;;;0.50;0.30;;;11.30;99.90;;;;;;4989476;28;20194;-78
2021/05/22 04:58:55;;;;;;;0.20;0.20;;;11.30;99.90;;;;;;4999411;28;20203;-79
2021/05/22 05:01:20;;;;;;;0.93;0.43;;;11.40;99.90;;;;;;4998748;28;20195;-81
2021/05/22 05:03:46;;;;;;;0.40;0.40;;;11.30;99.90;;;;;;4998507;28;20530;-78
2021/05/22 05:06:12;;;;;;;0.30;0.30;;;11.40;99.90;;;;;;4998047;28;20522;-81
2021/05/22 05:08:38;;;;;;;0.70;0.20;;;11.40;99.90;;;;;;4995952;28;20204;-77
2021/05/22 05:11:03;;;;;;;0.53;0.37;;;11.20;99.90;;;;;;4997914;28;20279;-78
2021/05/22 05:13:31;;;;;;;1.20;0.20;;;11.30;99.90;;;;;;4996206;28;20204;-79
2021/05/22 05:15:56;;;;;;;1.43;0.37;;;11.40;99.90;;;;;;4996323;28;20279;-80
2021/05/22 05:18:22;;;;;;;0.60;0.60;;;11.20;99.90;;;;;;4996321;28;20294;-78
2021/05/22 05:20:47;;;;;;;1.07;0.40;;;11.30;99.90;;;;;;4999403;28;20211;-78
2021/05/22 05:23:13;;;;;;;1.27;0.40;;;11.60;99.90;;;;;;4996818;28;21223;-79
2021/05/22 05:25:39;;;;;;;1.08;0.32;;;12.30;99.90;;;;;;4997298;28;20189;-77
2021/05/22 05:28:04;;;;;;;1.73;0.50;;;13.60;99.90;;;;;;4997757;28;20249;-78
2021/05/22 05:30:30;;;;;;;0.30;0.20;;;15.00;99.90;;;;;;4995507;28;20188;-77
2021/05/22 05:32:56;;;;;;;1.10;0.40;;;16.30;99.90;;;;;;4999007;28;20233;-80
2021/05/22 05:35:22;;;;;;;1.65;0.20;;;17.10;99.90;;;;;;4997346;28;20280;-81
2021/05/22 05:37:47;;;;;;;0.40;0.40;;;17.60;99.90;;;;;;5000060;28;20196;-78
2021/05/22 05:40:13;;;;;;;2.55;0.65;;;17.90;99.90;;;;;;4998368;28;20195;-79
2021/05/22 05:42:38;;;;;;;1.83;0.50;;;18.30;99.90;;;;;;4997360;28;20180;-79
2021/05/22 05:45:06;;;;;;;1.83;0.52;;;18.60;99.90;;;;;;4996242;28;20270;-78
2021/05/22 05:47:31;;;;;;;4.57;0.47;;;18.10;99.90;;;;;;4997013;28;20273;-79
2021/05/22 05:49:57;;;;;;;0.70;0.30;;;18.30;99.90;;;;;;4997574;28;20664;-79
2021/05/22 05:52:22;;;;;;;1.52;0.30;;;18.40;99.90;;;;;;4999296;28;20179;-78
2021/05/22 05:54:48;;;;;;;1.00;0.40;;;19.10;99.90;;;;;;4998787;28;20345;-79
2021/05/22 05:57:14;;;;;;;1.10;0.50;;;19.60;99.90;;;;;;4990984;28;20203;-78
2021/05/22 05:59:39;;;;;;;0.43;0.40;;;19.50;99.90;;;;;;4997298;28;20174;-81
2021/05/22 06:02:05;;;;;;;1.42;0.30;;;19.70;99.90;;;;;;4994869;28;20191;-79
2021/05/22 06:04:30;;;;;;;0.73;0.20;;;19.80;99.90;;;;;;4997802;28;20548;-78
2021/05/22 06:06:56;;;;;;;0.28;0.20;;;19.70;99.90;;;;;;4997412;28;20672;-78
2021/05/22 06:09:21;;;;;;;1.00;0.43;;;20.00;99.90;;;;;;5004771;28;20216;-80
2021/05/22 06:11:47;;;;;;;0.75;0.40;;;20.40;99.90;;;;;;4985601;28;20185;-78
2021/05/22 06:14:19;;;;;;;1.75;0.40;;;19.90;99.90;;;;;;4995279;28;20175;-79
2021/05/22 06:16:45;;;;;;;1.38;0.43;;;20.00;99.90;;;;;;4995517;28;20184;-77
2021/05/22 06:19:11;;;;;;;0.25;0.20;;;19.70;99.90;;;;;;4996547;28;20203;-80
2021/05/22 06:21:38;;;;;;;2.10;0.73;;;19.60;99.90;;;;;;4992250;28;20194;-78
2021/05/22 06:24:05;;;;;;;2.60;0.63;;;19.60;99.90;;;;;;4998149;28;20188;-78
2021/05/22 06:26:31;;;;;;;0.30;0.30;;;19.40;99.90;;;;;;4990989;28;20183;-78
2021/05/22 06:28:56;;;;;;;0.93;0.35;;;19.00;99.90;;;;;;4991278;28;20222;-78
2021/05/22 06:31:22;;;;;;;0.65;0.30;;;19.00;99.90;;;;;;4990486;28;20183;-79
2021/05/22 06:33:48;;;;;;;3.03;0.95;;;18.70;99.90;;;;;;4992817;28;20184;-77
2021/05/22 06:36:13;;;;;;;1.30;0.50;;;18.30;99.90;;;;;;4995007;28;20187;-77
2021/05/22 06:38:39;;;;;;;0.80;0.60;;;17.70;99.90;;;;;;4997980;28;20681;-77
2021/05/22 06:41:05;;;;;;;1.20;0.47;;;17.20;99.90;;;;;;4992721;28;20195;-78
2021/05/22 06:43:30;;;;;;;1.85;0.47;;;16.70;99.90;;;;;;4995569;28;20198;-77
2021/05/22 06:46:03;;;;;;;0.90;0.63;;;16.40;99.90;;;;;;4991179;28;20250;-78
2021/05/22 06:48:28;;;;;;;0.93;0.63;;;16.10;99.90;;;;;;4993537;28;20587;-78
2021/05/22 06:50:55;;;;;;;0.63;0.38;;;15.60;99.90;;;;;;4994206;28;20206;-81
2021/05/22 06:53:21;;;;;;;0.82;0.45;;;15.50;99.90;;;;;;4995515;28;20216;-80
2021/05/22 06:55:46;;;;;;;1.27;0.75;;;15.80;99.90;;;;;;4994553;28;20667;-78
2021/05/22 06:58:12;;;;;;;2.10;0.55;;;15.80;99.90;;;;;;4994104;28;20261;-77
2021/05/22 07:00:38;;;;;;;1.27;0.50;;;15.70;99.90;;;;;;4993338;28;20194;-79
2021/05/22 07:03:04;;;;;;;0.73;0.68;;;15.70;99.90;;;;;;4996188;28;20194;-78
2021/05/22 07:05:29;;;;;;;2.30;0.47;;;15.50;99.90;;;;;;4993146;28;20195;-79
2021/05/22 07:07:55;;;;;;;0.30;0.15;;;15.30;99.90;;;;;;4997347;28;20226;-78
2021/05/22 07:10:21;;;;;;;1.00;0.40;;;15.20;99.90;;;;;;4995819;28;20184;-80
2021/05/22 07:12:47;;;;;;;1.23;0.55;;;15.50;99.90;;;;;;5004294;28;20275;-76
2021/05/22 07:15:12;;;;;;;3.25;0.90;;;15.60;99.90;;;;;;5003239;28;20207;-78
2021/05/22 07:17:38;;;;;;;1.75;0.40;;;15.60;99.90;;;;;;4998502;28;20239;-80
2021/05/22 07:20:05;;;;;;;1.80;0.85;;;15.70;99.90;;;;;;5005066;28;20192;-78
2021/05/22 07:22:31;;;;;;;2.45;0.35;;;15.70;99.90;;;;;;4997239;28;20188;-77
2021/05/22 07:24:56;;;;;;;2.10;0.75;;;15.90;99.90;;;;;;5000820;28;20630;-79
2021/05/22 07:27:22;;;;;;;2.03;0.50;;;15.80;99.90;;;;;;4996746;28;20219;-80
2021/05/22 07:29:50;;;;;;;0.75;0.60;;;15.90;99.90;;;;;;4999206;28;20608;-78
2021/05/22 07:32:16;;;;;;;1.30;0.43;;;16.20;99.90;;;;;;5000160;28;20662;-79
2021/05/22 07:34:42;;;;;;;0.88;0.32;;;16.20;99.90;;;;;;4997712;28;20192;-80
2021/05/22 07:37:07;;;;;;;2.50;0.65;;;16.20;99.90;;;;;;4999532;28;20911;-78
2021/05/22 07:39:34;;;;;;;0.95;0.50;;;16.10;99.90;;;;;;5000421;28;20192;-80
2021/05/22 07:42:00;;;;;;;34.22;16.55;;;16.30;99.90;;;;;;5006674;28;20180;-79
2021/05/22 07:44:26;;;;;;;3.53;2.40;;;16.70;99.90;;;;;;4999812;28;20192;-78
2021/05/22 07:46:52;;;;;;;1.13;0.52;;;17.10;99.90;;;;;;4994126;28;20276;-79
2021/05/22 07:49:17;;;;;;;0.73;0.35;;;17.00;99.90;;;;;;4989772;28;20239;-78
2021/05/22 07:51:43;;;;;;;1.23;0.57;;;16.80;99.90;;;;;;4999289;28;20180;-79
2021/05/22 07:54:09;;;;;;;1.05;0.43;;;16.80;99.90;;;;;;4999203;28;20184;-79
2021/05/22 07:56:35;;;;;;;3.33;1.23;;;16.70;99.90;;;;;;4996476;28;20177;-78
2021/05/22 07:59:01;;;;;;;2.28;1.08;;;16.80;99.90;;;;;;4996772;28;20211;-80
2021/05/22 08:01:27;;;;;;;0.75;0.25;;;17.40;99.90;;;;;;4997359;28;20188;-80
2021/05/22 08:03:52;;;;;;;0.75;0.63;;;17.50;99.90;;;;;;4998999;28;20195;-77
2021/05/22 08:06:18;;;;;;;0.95;0.43;;;17.00;99.90;;;;;;4998339;28;20180;-79
2021/05/22 08:08:44;;;;;;;0.35;0.30;;;17.20;99.90;;;;;;5001990;28;20281;-78
2021/05/22 08:11:11;;;;;;;0.47;0.47;;;17.30;99.90;;;;;;4998383;28;20562;-80
2021/05/22 08:14:15;;;;;;;0.60;0.38;;;17.10;99.90;;;;;;5006685;28;20211;-79
2021/05/22 08:16:42;;;;;;;0.85;0.30;;;16.90;99.90;;;;;;4994667;28;20196;-79
2021/05/22 08:19:10;;;;;;;0.50;0.30;;;16.70;99.90;;;;;;5004160;28;20243;-77
2021/05/22 08:21:36;;;;;;;0.40;0.20;;;16.60;99.90;;;;;;4994025;28;20184;-79
2021/05/22 08:24:02;;;;;;;0.45;0.30;;;16.60;99.90;;;;;;5003321;28;20935;-79
2021/05/22 08:26:28;;;;;;;0.40;0.30;;;16.30;99.90;;;;;;5001199;28;20184;-78
2021/05/22 08:28:54;;;;;;;1.67;0.50;;;16.30;99.90;;;;;;5002129;28;21316;-77
2021/05/22 08:31:20;;;;;;;0.90;0.60;;;15.80;99.90;;;;;;5003840;28;20677;-80
2021/05/22 08:33:46;;;;;;;1.63;0.45;;;15.60;99.90;;;;;;5002432;28;20203;-80
2021/05/22 08:36:12;;;;;;;0.43;0.30;;;15.50;99.90;;;;;;5020326;28;20191;-80
2021/05/22 08:38:38;;;;;;;1.75;0.57;;;15.80;99.90;;;;;;5019297;28;20207;-79
2021/05/22 08:41:05;;;;;;;1.27;0.50;;;16.10;99.90;;;;;;5022695;28;20183;-78
2021/05/22 08:43:31;;;;;;;0.38;0.30;;;16.30;99.90;;;;;;5029894;28;20203;-79
2021/05/22 08:45:57;;;;;;;3.55;0.90;;;16.40;99.90;;;;;;5013304;28;20183;-79
2021/05/22 08:48:24;;;;;;;0.40;0.40;;;16.50;99.90;;;;;;5020595;28;20241;-77
2021/05/22 08:50:50;;;;;;;0.30;0.30;;;16.40;99.90;;;;;;5021248;28;20211;-79
2021/05/22 08:53:16;;;;;;;0.30;0.30;;;16.30;99.90;;;;;;5020616;28;20255;-81
2021/05/22 08:55:41;;;;;;;0.50;0.30;;;16.50;99.90;;;;;;5006078;28;20277;-79
2021/05/22 08:58:08;;;;;;;0.63;0.28;;;16.90;99.90;;;;;;5006749;28;20200;-78
2021/05/22 09:00:40;;;;;;;1.60;0.75;;;17.20;99.90;;;;;;5007950;28;20188;-76
2021/05/22 09:03:08;;;;;;;0.57;0.40;;;17.40;99.90;;;;;;5026612;28;20176;-78
2021/05/22 09:05:34;;;;;;;2.05;0.75;;;17.70;99.90;;;;;;5003382;28;20651;-77
2021/05/22 09:08:07;;;;;;;0.95;0.50;;;17.30;99.90;;;;;;5003592;28;20211;-79
2021/05/22 09:10:38;;;;;;;2.63;0.63;;;17.10;99.90;;;;;;5004620;28;20226;-79
2021/05/22 09:13:10;;;;;;;0.57;0.40;;;16.70;99.90;;;;;;5017318;28;20195;-79
2021/05/22 09:15:41;;;;;;;0.40;0.30;;;16.50;99.90;;;;;;5006361;28;20179;-78
2021/05/22 09:18:13;;;;;;;0.65;0.22;;;16.80;99.90;;;;;;5004137;28;20215;-80
2021/05/22 09:20:46;;;;;;;1.58;0.47;;;17.10;99.90;;;;;;5006195;28;20188;-79
2021/05/22 09:23:21;;;;;;;0.30;0.30;;;17.20;99.90;;;;;;5001899;28;20263;-77
2021/05/22 09:25:49;;;;;;;1.75;0.40;;;16.90;99.90;;;;;;5001641;28;20794;-79
2021/05/22 09:28:17;;;;;;;0.57;0.35;;;16.30;99.90;;;;;;5000838;28;20275;-79
2021/05/22 09:30:45;;;;;;;1.65;0.30;;;16.00;99.90;;;;;;5000455;28;20639;-78
2021/05/22 09:33:13;;;;;;;0.35;0.22;;;16.30;99.90;;;;;;5005586;28;20176;-77
2021/05/22 09:35:40;;;;;;;0.45;0.25;;;16.40;99.90;;;;;;5000909;28;20175;-81
2021/05/22 09:38:06;;;;;;;1.48;0.30;;;16.60;99.90;;;;;;5007838;28;20207;-75
2021/05/22 09:40:37;;;;;;;0.35;0.30;;;16.70;99.90;;;;;;5007428;28;20183;-78
2021/05/22 09:43:05;;;;;;;1.02;0.45;;;16.40;99.90;;;;;;5008670;28;20249;-79
2021/05/22 09:45:34;;;;;;;0.47;0.30;;;16.40;99.90;;;;;;5006106;28;20302;-77
2021/05/22 09:48:23;;;;;;;0.47;0.30;;;16.20;99.90;;;;;;5010825;28;20208;-77
2021/05/22 09:50:53;;;;;;;0.30;0.28;;;16.40;99.90;;;;;;5010863;28;20173;-76
2021/05/22 09:53:27;;;;;;;1.40;0.32;;;16.00;99.90;;;;;;5012530;28;20181;-80
2021/05/22 09:56:22;;;;;;;0.75;0.38;;;15.80;99.90;;;;;;5014066;28;20187;-78
2021/05/22 09:58:49;;;;;;;0.68;0.40;;;15.50;99.90;;;;;;5012981;28;20263;-77
2021/05/22 10:01:16;;;;;;;0.85;0.28;;;15.40;99.90;;;;;;5016117;28;20272;-77
2021/05/22 10:03:42;;;;;;;0.45;0.28;;;15.50;99.90;;;;;;5005375;28;20531;-80
2021/05/22 10:06:08;;;;;;;5.18;0.65;;;15.50;99.90;;;;;;5001663;28;20524;-80
2021/05/22 10:08:34;;;;;;;0.30;0.30;;;15.70;99.90;;;;;;4998565;28;20212;-81
2021/05/22 10:11:00;;;;;;;2.15;0.30;;;15.90;99.90;;;;;;4998542;28;20659;-79
2021/05/22 10:13:27;;;;;;;0.43;0.20;;;16.10;99.90;;;;;;5001628;28;20716;-79
2021/05/22 10:15:59;;;;;;;1.08;0.50;;;16.40;99.90;;;;;;5002827;28;20176;-81
2021/05/22 10:18:28;;;;;;;1.63;0.63;;;16.70;99.90;;;;;;4999112;28;20259;-79
2021/05/22 10:20:55;;;;;;;0.60;0.25;;;16.80;99.90;;;;;;4997655;28;20180;-81
2021/05/22 10:23:21;;;;;;;0.50;0.28;;;16.90;99.90;;;;;;4998266;28;20198;-76
2021/05/22 10:25:52;;;;;;;1.20;0.45;;;16.70;99.90;;;;;;4991917;28;20188;-76
2021/05/22 10:28:18;;;;;;;0.30;0.30;;;16.60;99.90;;;;;;4995212;28;20215;-76
2021/05/22 10:30:44;;;;;;;1.20;0.20;;;16.60;99.90;;;;;;4994767;28;20187;-79
2021/05/22 10:33:12;;;;;;;0.47;0.10;;;16.50;99.90;;;;;;4995426;28;20172;-78
2021/05/22 10:35:48;;;;;;;1.83;0.35;;;16.50;99.90;;;;;;4996306;28;20413;-78
2021/05/22 10:38:41;;;;;;;0.20;0.20;;;16.40;99.90;;;;;;4997022;28;20286;-77
2021/05/22 10:41:11;;;;;;;0.32;0.30;;;16.40;99.90;;;;;;4994703;28;20203;-77
2021/05/22 10:43:43;;;;;;;2.47;0.20;;;16.60;99.90;;;;;;4995550;28;20908;-77
2021/05/22 10:46:10;;;;;;;0.30;0.30;;;16.60;99.90;;;;;;4995198;28;20187;-76
2021/05/22 10:48:36;;;;;;;0.40;0.20;;;16.80;99.90;;;;;;4997565;28;20242;-74
2021/05/22 10:51:01;;;;;;;0.30;0.30;;;16.60;99.90;;;;;;4998867;28;20713;-77
2021/05/22 10:53:34;;;;;;;0.38;0.30;;;16.50;99.90;;;;;;4993686;28;20192;-78
2021/05/22 10:56:24;;;;;;;2.35;0.88;;;16.50;99.90;;;;;;4997224;28;20232;-75
2021/05/22 10:58:59;;;;;;;0.80;0.15;;;16.50;99.90;;;;;;5009842;28;20551;-75
2021/05/22 11:01:29;;;;;;;0.10;0.10;;;16.40;99.90;;;;;;5013023;28;20188;-74
2021/05/22 11:04:07;;;;;;;0.70;0.20;;;16.50;99.90;;;;;;5013356;28;20168;-75
2021/05/22 11:07:17;;;;;;;0.20;0.20;;;16.50;99.90;;;;;;5017051;28;20200;-75
2021/05/22 11:09:44;;;;;;;0.47;0.35;;;16.40;99.90;;;;;;5009283;28;20224;-76
2021/05/22 11:12:10;;;;;;;0.38;0.20;;;16.40;99.90;;;;;;5017137;28;20191;-75
2021/05/22 11:14:44;;;;;;;0.17;0.17;;;16.70;99.90;;;;;;5016589;28;20226;-77
2021/05/22 11:17:21;;;;;;;0.57;0.20;;;16.60;99.90;;;;;;5021637;28;20720;-76
2021/05/22 11:19:59;;;;;;;0.68;0.20;;;16.50;99.90;;;;;;5012380;28;20195;-75
2021/05/22 11:22:26;;;;;;;0.20;0.20;;;16.40;99.90;;;;;;5008211;28;20192;-74
2021/05/22 11:25:04;;;;;;;0.60;0.47;;;16.60;99.90;;;;;;5019258;28;20184;-79
2021/05/22 11:30:21;;;;;;;1.45;0.30;;;16.80;99.90;;;;;;4998302;28;20188;-79
2021/05/22 11:33:03;;;;;;;0.40;0.20;;;16.70;99.90;;;;;;5009417;28;20247;-79
2021/05/22 11:35:33;;;;;;;0.93;0.28;;;16.40;99.90;;;;;;5012566;28;20192;-80
2021/05/22 11:38:14;;;;;;;0.25;0.15;;;16.20;99.90;;;;;;5012560;28;20203;-80
2021/05/22 11:40:39;;;;;;;0.22;0.22;;;16.30;99.90;;;;;;5016105;28;20184;-78
2021/05/22 11:43:23;;;;;;;0.20;0.20;;;16.40;99.90;;;;;;5017889;28;20222;-79
2021/05/22 11:45:48;;;;;;;0.20;0.20;;;16.70;99.90;;;;;;5022123;28;20211;-79
2021/05/22 11:48:40;;;;;;;0.98;0.13;;;16.60;99.90;;;;;;5006432;28;20607;-80
2021/05/22 11:51:06;;;;;;;0.20;0.20;;;16.70;99.90;;;;;;5002554;28;20175;-80
2021/05/22 11:53:32;;;;;;;0.30;0.20;;;16.20;99.90;;;;;;5002109;28;20233;-82
2021/05/22 11:55:59;;;;;;;0.47;0.20;;;15.70;99.90;;;;;;5005387;28;20219;-81
2021/05/22 11:58:25;;;;;;;0.68;0.43;;;15.50;99.90;;;;;;5011409;28;20230;-80
2021/05/22 12:00:54;;;;;;;0.10;0.10;;;15.50;99.90;;;;;;5010768;28;20214;-81
2021/05/22 12:03:27;;;;;;;0.50;0.20;;;15.30;99.90;;;;;;5017869;28;20187;-81
2021/05/22 12:05:54;;;;;;;0.40;0.40;;;15.10;99.90;;;;;;5004773;28;20269;-79
2021/05/22 12:08:28;;;;;;;0.10;0.10;;;15.10;99.90;;;;;;5004296;28;20223;-80
2021/05/22 12:10:54;;;;;;;0.57;0.20;;;15.10;99.90;;;;;;5002713;28;20172;-79
2021/05/22 12:13:20;;;;;;;0.20;0.20;;;15.10;99.90;;;;;;5001244;28;20179;-81
2021/05/22 12:15:46;;;;;;;1.10;0.50;;;15.20;99.90;;;;;;5001611;28;20211;-81
2021/05/22 12:18:16;;;;;;;0.20;0.20;;;15.40;99.90;;;;;;5001137;28;20701;-80
2021/05/22 12:20:46;;;;;;;0.35;0.30;;;15.50;99.90;;;;;;5002170;28;20189;-80
2021/05/22 12:23:26;;;;;;;0.10;0.10;;;15.50;99.90;;;;;;5000019;28;20262;-80
2021/05/22 12:25:53;;;;;;;0.60;0.30;;;15.40;99.90;;;;;;5004345;28;20203;-80
2021/05/22 12:28:21;;;;;;;0.20;0.20;;;15.40;99.90;;;;;;5000244;28;20212;-81
2021/05/22 12:30:47;;;;;;;0.30;0.30;;;15.30;99.90;;;;;;5000333;28;21113;-79
2021/05/22 12:33:17;;;;;;;0.20;0.20;;;15.20;99.90;;;;;;5002134;28;20186;-80
2021/05/22 12:35:48;;;;;;;0.65;0.40;;;15.20;99.90;;;;;;5001613;28;20258;-80
2021/05/22 12:38:16;;;;;;;1.35;0.30;;;15.10;99.90;;;;;;5017322;28;20210;-79
2021/05/22 12:40:48;;;;;;;1.00;0.20;;;15.00;99.90;;;;;;5001314;28;20188;-78
2021/05/22 12:43:15;;;;;;;0.13;0.13;;;15.40;99.90;;;;;;5002248;28;20255;-78
2021/05/22 12:45:43;;;;;;;0.40;0.30;;;15.50;99.90;;;;;;4998195;28;20603;-79
2021/05/22 12:48:23;;;;;;;0.20;0.20;;;15.40;99.90;;;;;;5000662;28;20239;-80
2021/05/22 12:50:49;;;;;;;0.20;0.20;;;15.30;99.90;;;;;;5001242;28;20240;-77
2021/05/22 12:53:28;;;;;;;0.10;0.10;;;15.20;99.90;;;;;;5002275;28;20190;-79
2021/05/22 12:56:03;;;;;;;0.90;0.10;;;15.30;99.90;;;;;;5007410;28;20176;-77